Time;durP1;ratioP1;P1;durP2;ratioP2;P2;SDS_P1;SDS_P2;PMS_P1;PMS_P2;Temp;Humidity;BMP_temperature;BMP_pressure;BME280_temperature;BME280_humidity;BME280_pressure;Samples;Min_cycle;Max_cycle;Signal;HPM_P1;HPM_P2
2023/06/12 00:01:44;;;;;;;6.68;4.72;;;;;;;-148.88;58.59;-17125.47;4974330;28;20555;-75
2023/06/12 00:04:10;;;;;;;7.78;5.28;;;;;;;-148.88;58.91;-17125.47;4974058;28;20027;-75
2023/06/12 00:06:37;;;;;;;9.70;4.90;;;;;;;-148.88;59.05;-17125.47;4972984;28;20022;-75
2023/06/12 00:09:04;;;;;;;6.60;4.97;;;;;;;-148.88;59.83;-17125.47;4974237;28;20027;-75
2023/06/12 00:11:29;;;;;;;6.53;5.00;;;;;;;-148.88;56.60;-17125.47;4974017;28;20038;-75
2023/06/12 00:13:54;;;;;;;5.78;4.25;;;;;;;-148.88;57.58;-17125.47;4973946;28;20019;-74
2023/06/12 00:16:20;;;;;;;5.75;4.13;;;;;;;-148.88;57.46;-17125.47;4985833;23;20137;-71
2023/06/12 00:18:46;;;;;;;6.07;4.43;;;;;;;-148.88;58.09;-17125.47;4973573;28;20030;-71
2023/06/12 00:21:12;;;;;;;6.03;4.40;;;;;;;-148.88;58.75;-17125.47;4973572;28;20022;-72
2023/06/12 00:23:38;;;;;;;6.32;4.97;;;;;;;-148.88;57.79;-17125.47;4972853;28;20030;-71
2023/06/12 00:26:04;;;;;;;5.57;4.70;;;;;;;-148.88;58.61;-17125.47;4972323;28;20485;-71
2023/06/12 00:28:30;;;;;;;6.13;4.45;;;;;;;-148.88;59.25;-17125.47;4973624;28;20065;-71
2023/06/12 00:31:01;;;;;;;6.75;4.70;;;;;;;-148.88;60.68;-17125.47;5014832;23;20493;-91
2023/06/12 00:33:43;;;;;;;6.20;4.68;;;;;;;-148.88;59.53;-17125.47;4976175;28;20027;-91
2023/06/12 00:36:09;;;;;;;6.32;4.75;;;;;;;-148.88;59.54;-17125.47;4976095;28;20018;-91
2023/06/12 00:38:37;;;;;;;6.28;4.60;;;;;;;-148.88;61.18;-17125.47;4973082;28;20025;-91
2023/06/12 00:41:03;;;;;;;8.52;4.63;;;;;;;-148.88;62.47;-17125.47;4972015;28;20041;-90
2023/06/12 00:43:28;;;;;;;9.25;4.68;;;;;;;-148.88;61.04;-17125.47;4973231;28;20023;-91
2023/06/12 00:46:03;;;;;;;8.02;5.07;;;;;;;-148.88;61.44;-17125.47;4973206;28;20026;-91
2023/06/12 00:48:29;;;;;;;6.43;4.93;;;;;;;-148.88;61.73;-17125.47;4974539;28;20031;-91
2023/06/12 00:50:56;;;;;;;8.23;5.20;;;;;;;-148.88;62.42;-17125.47;4973261;28;20026;-92
2023/06/12 00:53:24;;;;;;;6.97;4.85;;;;;;;-148.88;61.97;-17125.47;4972189;28;20062;-91
2023/06/12 00:55:50;;;;;;;5.85;4.85;;;;;;;-148.88;62.73;-17125.47;4973174;28;20078;-92
2023/06/12 00:58:15;;;;;;;8.13;5.53;;;;;;;-148.88;63.58;-17125.47;4973212;28;20022;-91
2023/06/12 01:00:41;;;;;;;10.10;6.10;;;;;;;-148.88;63.53;-17125.47;4973261;28;20023;-91
2023/06/12 01:03:10;;;;;;;7.97;5.95;;;;;;;-148.88;64.38;-17125.47;4976036;28;20034;-91
2023/06/12 01:05:38;;;;;;;6.55;5.40;;;;;;;-148.88;64.82;-17125.47;4976710;28;20030;-91
2023/06/12 01:08:17;;;;;;;10.23;5.25;;;;;;;-148.88;65.05;-17125.47;4976381;28;20030;-91
2023/06/12 01:10:56;;;;;;;6.60;4.85;;;;;;;-148.88;65.36;-17125.47;4977847;28;20030;-90
2023/06/12 01:13:22;;;;;;;7.25;5.40;;;;;;;-148.88;64.01;-17125.47;4976754;28;20065;-91
2023/06/12 01:15:50;;;;;;;8.35;5.55;;;;;;;-148.88;63.59;-17125.47;4977838;28;20053;-91
2023/06/12 01:18:16;;;;;;;9.05;5.30;;;;;;;-148.88;64.62;-17125.47;4978460;28;20076;-91
2023/06/12 01:20:45;;;;;;;8.23;5.60;;;;;;;-148.88;63.69;-17125.47;4976291;28;20035;-91
2023/06/12 01:23:20;;;;;;;6.07;4.63;;;;;;;-148.88;61.88;-17125.47;4976495;28;20496;-91
2023/06/12 01:25:58;;;;;;;6.47;4.93;;;;;;;-148.88;61.91;-17125.47;4976176;28;20035;-91
2023/06/12 01:28:37;;;;;;;6.93;5.15;;;;;;;-148.88;62.75;-17125.47;4976625;28;20500;-90
2023/06/12 01:31:27;;;;;;;8.18;4.90;;;;;;;-148.88;62.50;-17125.47;4976360;28;20034;-90
2023/06/12 01:34:06;;;;;;;6.55;4.90;;;;;;;-148.88;62.01;-17125.47;4976614;28;20062;-90
2023/06/12 01:36:39;;;;;;;8.50;4.60;;;;;;;-148.88;61.98;-17125.47;4976811;28;20424;-91
2023/06/12 01:39:09;;;;;;;6.65;5.55;;;;;;;-148.88;62.56;-17125.47;4976691;28;20027;-90
2023/06/12 01:41:38;;;;;;;6.97;5.10;;;;;;;-148.88;63.22;-17125.47;4976388;28;20077;-90
2023/06/12 01:44:08;;;;;;;7.10;5.00;;;;;;;-148.88;62.85;-17125.47;4976093;28;20492;-91
2023/06/12 01:46:36;;;;;;;8.63;5.80;;;;;;;-148.88;64.66;-17125.47;4976705;28;20022;-90
2023/06/12 01:49:08;;;;;;;7.72;6.72;;;;;;;-148.88;67.53;-17125.47;4975797;28;20035;-90
2023/06/12 01:51:33;;;;;;;8.27;7.20;;;;;;;-148.88;68.01;-17125.47;4975732;28;20030;-91
2023/06/12 01:54:00;;;;;;;8.63;6.60;;;;;;;-148.88;69.77;-17125.47;4975630;28;20027;-90
2023/06/12 01:56:27;;;;;;;8.55;6.63;;;;;;;-148.88;70.26;-17125.47;4975734;28;20029;-90
2023/06/12 01:58:58;;;;;;;8.20;6.18;;;;;;;-148.88;69.51;-17125.47;4975389;28;20492;-90
2023/06/12 02:01:29;;;;;;;8.77;6.15;;;;;;;-148.88;70.13;-17125.47;4975499;28;20035;-90
2023/06/12 02:03:56;;;;;;;10.30;6.05;;;;;;;-148.88;68.40;-17125.47;4975122;28;20066;-90
2023/06/12 02:06:21;;;;;;;7.53;6.07;;;;;;;-148.88;69.96;-17125.47;4975725;28;20026;-91
2023/06/12 02:08:48;;;;;;;8.50;6.88;;;;;;;-148.88;68.13;-17125.47;4975743;28;20023;-91
2023/06/12 02:11:14;;;;;;;8.32;6.07;;;;;;;-148.88;68.24;-17125.47;4975148;28;20038;-91
2023/06/12 02:13:40;;;;;;;13.23;6.40;;;;;;;-148.88;68.24;-17125.47;4974976;28;20034;-91
2023/06/12 02:16:07;;;;;;;10.35;6.03;;;;;;;-148.88;67.83;-17125.47;4975310;28;20090;-91
2023/06/12 02:18:33;;;;;;;8.15;5.80;;;;;;;-148.88;67.54;-17125.47;4975248;28;20031;-91
2023/06/12 02:20:59;;;;;;;9.18;6.13;;;;;;;-148.88;68.20;-17125.47;4977592;28;20101;-91
2023/06/12 02:23:24;;;;;;;8.43;6.22;;;;;;;-148.88;67.72;-17125.47;4975535;28;20054;-91
2023/06/12 02:25:50;;;;;;;6.97;5.75;;;;;;;-148.88;67.66;-17125.47;4975408;28;20552;-90
2023/06/12 02:28:15;;;;;;;7.03;5.78;;;;;;;-148.88;68.07;-17125.47;4976311;28;20105;-90
2023/06/12 02:30:41;;;;;;;7.80;5.55;;;;;;;-148.88;67.79;-17125.47;4976459;28;20077;-91
2023/06/12 02:33:09;;;;;;;8.20;5.15;;;;;;;-148.88;68.19;-17125.47;4975125;28;20090;-91
2023/06/12 02:35:38;;;;;;;7.03;6.05;;;;;;;-148.88;69.71;-17125.47;4974861;28;20027;-91
2023/06/12 02:38:03;;;;;;;9.70;6.88;;;;;;;-148.88;71.15;-17125.47;4974643;28;20023;-91
2023/06/12 02:40:29;;;;;;;8.80;6.85;;;;;;;-148.88;71.95;-17125.47;4974744;28;20022;-91
2023/06/12 02:42:54;;;;;;;7.93;6.97;;;;;;;-148.88;73.14;-17125.47;4974713;28;20027;-91
2023/06/12 02:45:22;;;;;;;9.30;7.30;;;;;;;-148.88;74.76;-17125.47;4975861;28;20400;-91
2023/06/12 02:47:47;;;;;;;8.52;6.78;;;;;;;-148.88;75.10;-17125.47;4976094;28;20038;-91
2023/06/12 02:50:12;;;;;;;7.93;6.63;;;;;;;-148.88;76.17;-17125.47;4975602;28;20019;-91
2023/06/12 02:52:40;;;;;;;8.70;6.95;;;;;;;-148.88;76.23;-17125.47;4976057;28;20035;-90
2023/06/12 02:55:06;;;;;;;10.05;6.70;;;;;;;-148.88;74.95;-17125.47;4974683;28;20022;-90
2023/06/12 02:57:32;;;;;;;7.90;6.72;;;;;;;-148.88;76.05;-17125.47;4975892;28;20129;-91
2023/06/12 02:59:57;;;;;;;9.23;7.22;;;;;;;-148.88;77.07;-17125.47;4974430;28;20393;-90
2023/06/12 03:02:23;;;;;;;9.52;7.10;;;;;;;-148.88;79.06;-17125.47;4975281;28;20019;-89
2023/06/12 03:04:48;;;;;;;9.00;7.20;;;;;;;-148.88;79.23;-17125.47;4974195;28;20027;-90
2023/06/12 03:07:16;;;;;;;8.88;6.63;;;;;;;-148.88;78.17;-17125.47;4974250;28;20077;-90
2023/06/12 03:09:42;;;;;;;8.70;6.85;;;;;;;-148.88;77.42;-17125.47;4974092;28;20139;-90
2023/06/12 03:12:08;;;;;;;10.38;6.88;;;;;;;-148.88;77.46;-17125.47;4974359;28;20034;-90
2023/06/12 03:14:33;;;;;;;9.02;7.38;;;;;;;-148.88;76.49;-17125.47;4975547;28;20025;-90
2023/06/12 03:16:59;;;;;;;10.73;7.05;;;;;;;-148.88;76.99;-17125.47;4975291;28;20026;-91
2023/06/12 03:19:24;;;;;;;8.65;7.30;;;;;;;-148.88;75.88;-17125.47;4975985;28;20030;-92
2023/06/12 03:21:50;;;;;;;7.32;6.40;;;;;;;-148.88;76.18;-17125.47;4974041;28;20121;-90
2023/06/12 03:24:15;;;;;;;7.68;6.20;;;;;;;-148.88;76.31;-17125.47;4975279;28;20031;-90
2023/06/12 03:26:41;;;;;;;7.78;5.95;;;;;;;-148.88;75.84;-17125.47;4974425;28;20027;-88
2023/06/12 03:29:07;;;;;;;8.93;6.13;;;;;;;-148.88;76.40;-17125.47;4975218;28;20023;-88
2023/06/12 03:31:33;;;;;;;7.65;5.90;;;;;;;-148.88;76.56;-17125.47;4975004;28;20042;-87
2023/06/12 03:33:58;;;;;;;7.35;6.10;;;;;;;-148.88;76.47;-17125.47;4975188;28;20035;-87
2023/06/12 03:36:25;;;;;;;8.57;6.28;;;;;;;-148.88;76.40;-17125.47;4975263;28;20023;-90
2023/06/12 03:38:50;;;;;;;7.32;6.15;;;;;;;-148.88;76.44;-17125.47;4975042;28;20445;-86
2023/06/12 03:41:16;;;;;;;7.88;6.32;;;;;;;-148.88;76.79;-17125.47;4975231;28;20019;-86
2023/06/12 03:43:43;;;;;;;9.95;6.60;;;;;;;-148.88;77.63;-17125.47;4975165;28;20022;-89
2023/06/12 03:46:09;;;;;;;9.40;6.47;;;;;;;-148.88;77.63;-17125.47;4974970;28;20105;-90
2023/06/12 03:48:35;;;;;;;7.35;5.90;;;;;;;-148.88;77.46;-17125.47;4973971;28;20022;-89
2023/06/12 03:51:00;;;;;;;7.78;6.60;;;;;;;-148.88;77.55;-17125.47;4973371;28;20105;-89
2023/06/12 03:53:25;;;;;;;7.78;5.93;;;;;;;-148.88;77.19;-17125.47;4974840;28;20058;-90
2023/06/12 03:55:51;;;;;;;7.53;6.00;;;;;;;-148.88;77.65;-17125.47;4974689;28;20082;-89
2023/06/12 03:58:17;;;;;;;7.60;6.05;;;;;;;-148.88;79.70;-17125.47;4974673;28;20023;-90
2023/06/12 04:00:45;;;;;;;8.45;6.13;;;;;;;-148.88;79.57;-17125.47;4974747;28;20047;-90
2023/06/12 04:03:14;;;;;;;9.10;6.80;;;;;;;-148.88;80.12;-17125.47;4974751;28;20050;-90
2023/06/12 04:05:39;;;;;;;9.13;6.78;;;;;;;-148.88;80.00;-17125.47;4974654;28;20057;-90
2023/06/12 04:08:05;;;;;;;10.52;7.07;;;;;;;-148.88;80.45;-17125.47;4974573;28;20058;-90
2023/06/12 04:10:33;;;;;;;8.77;7.13;;;;;;;-148.88;80.76;-17125.47;4974586;28;20029;-90
2023/06/12 04:12:58;;;;;;;8.13;6.93;;;;;;;-148.88;81.05;-17125.47;4973621;28;20033;-90
2023/06/12 04:15:24;;;;;;;8.55;6.70;;;;;;;-148.88;80.96;-17125.47;4975099;28;20023;-90
2023/06/12 04:17:49;;;;;;;11.20;7.18;;;;;;;-148.88;80.69;-17125.47;4974115;28;20492;-90
2023/06/12 04:20:14;;;;;;;11.05;7.32;;;;;;;-148.88;80.39;-17125.47;4974722;28;20030;-89
2023/06/12 04:22:41;;;;;;;9.10;7.10;;;;;;;-148.88;80.70;-17125.47;4974772;28;20114;-90
2023/06/12 04:25:08;;;;;;;10.70;7.60;;;;;;;-148.88;80.96;-17125.47;4975097;28;20023;-90
2023/06/12 04:27:34;;;;;;;10.48;7.82;;;;;;;-148.88;80.79;-17125.47;4973502;28;20030;-90
2023/06/12 04:29:59;;;;;;;9.35;7.20;;;;;;;-148.88;81.06;-17125.47;4975193;28;20393;-89
2023/06/12 04:32:29;;;;;;;8.90;6.85;;;;;;;-148.88;80.88;-17125.47;4977111;28;20041;-90
2023/06/12 04:34:55;;;;;;;8.48;6.90;;;;;;;-148.88;80.97;-17125.47;4974705;28;20397;-88
2023/06/12 04:37:21;;;;;;;8.20;6.93;;;;;;;-148.88;80.97;-17125.47;4974855;28;20477;-89
2023/06/12 04:39:47;;;;;;;12.23;6.97;;;;;;;-148.88;80.63;-17125.47;4978479;28;20027;-88
2023/06/12 04:42:16;;;;;;;8.38;7.00;;;;;;;-148.88;80.30;-17125.47;4977801;28;20041;-89
2023/06/12 04:44:43;;;;;;;9.95;7.50;;;;;;;-148.88;81.14;-17125.47;4978392;28;20051;-88
2023/06/12 04:47:14;;;;;;;8.63;7.05;;;;;;;-148.88;81.18;-17125.47;4978343;28;20031;-89
2023/06/12 04:49:41;;;;;;;11.25;7.45;;;;;;;-148.88;81.35;-17125.47;4977025;28;20461;-89
2023/06/12 04:52:07;;;;;;;9.18;7.32;;;;;;;-148.88;81.24;-17125.47;4977280;28;20026;-89
2023/06/12 04:54:35;;;;;;;10.82;7.63;;;;;;;-148.88;81.98;-17125.47;4977566;28;20037;-88
2023/06/12 04:57:07;;;;;;;9.65;7.50;;;;;;;-148.88;82.50;-17125.47;4977075;28;20033;-88
2023/06/12 04:59:37;;;;;;;11.60;8.50;;;;;;;-148.88;82.69;-17125.47;4977772;28;20392;-87
2023/06/12 05:02:03;;;;;;;8.95;7.80;;;;;;;-148.88;82.57;-17125.47;4978038;28;20027;-88
2023/06/12 05:04:32;;;;;;;11.07;7.93;;;;;;;-148.88;83.62;-17125.47;4979161;28;20051;-88
2023/06/12 05:07:03;;;;;;;9.63;7.88;;;;;;;-148.88;84.19;-17125.47;4977958;28;20023;-88
2023/06/12 05:09:29;;;;;;;12.73;8.55;;;;;;;-148.88;84.80;-17125.47;4978643;28;20387;-88
2023/06/12 05:11:54;;;;;;;11.38;8.43;;;;;;;-148.88;85.72;-17125.47;4979021;28;20031;-87
2023/06/12 05:14:20;;;;;;;13.63;8.57;;;;;;;-148.88;85.06;-17125.47;4979501;28;20054;-89
2023/06/12 05:16:46;;;;;;;13.20;8.63;;;;;;;-148.88;84.50;-17125.47;4978524;28;20022;-89
2023/06/12 05:19:12;;;;;;;11.45;8.00;;;;;;;-148.88;84.93;-17125.47;4980321;28;20149;-89
2023/06/12 05:21:39;;;;;;;10.43;8.27;;;;;;;-148.88;84.18;-17125.47;4980226;28;20057;-89
2023/06/12 05:24:05;;;;;;;10.95;7.88;;;;;;;-148.88;84.39;-17125.47;4977996;28;20102;-90
2023/06/12 05:26:33;;;;;;;11.98;7.97;;;;;;;-148.88;83.25;-17125.47;4977077;28;20484;-90
2023/06/12 05:28:58;;;;;;;9.85;8.07;;;;;;;-148.88;83.42;-17125.47;4977834;28;20023;-91
2023/06/12 05:31:23;;;;;;;12.82;7.93;;;;;;;-148.88;83.12;-17125.47;4979517;28;20027;-90
2023/06/12 05:33:49;;;;;;;12.85;7.93;;;;;;;-148.88;83.35;-17125.47;4977967;28;20086;-90
2023/06/12 05:36:14;;;;;;;11.88;8.55;;;;;;;-148.88;83.55;-17125.47;4977720;28;20085;-89
2023/06/12 05:38:45;;;;;;;9.23;7.70;;;;;;;-148.88;83.04;-17125.47;4977942;28;20058;-89
2023/06/12 05:41:12;;;;;;;10.63;7.60;;;;;;;-148.88;83.43;-17125.47;4978112;28;20046;-90
2023/06/12 05:43:40;;;;;;;10.43;7.35;;;;;;;-148.88;83.13;-17125.47;4977639;28;20039;-89
2023/06/12 05:46:05;;;;;;;8.55;6.25;;;;;;;-148.88;82.69;-17125.47;4978756;28;20033;-88
2023/06/12 05:48:30;;;;;;;10.23;7.38;;;;;;;-148.88;81.97;-17125.47;4978540;28;20098;-88
2023/06/12 05:50:56;;;;;;;9.93;6.90;;;;;;;-148.88;82.96;-17125.47;4977182;28;20099;-89
2023/06/12 05:53:21;;;;;;;8.98;7.10;;;;;;;-148.88;83.28;-17125.47;4977019;28;20433;-89
2023/06/12 05:55:47;;;;;;;10.15;7.38;;;;;;;-148.88;83.38;-17125.47;4977019;28;20022;-88
2023/06/12 05:58:12;;;;;;;10.23;6.93;;;;;;;-148.88;82.77;-17125.47;4976660;28;20105;-89
2023/06/12 06:00:38;;;;;;;9.70;6.78;;;;;;;-148.88;82.98;-17125.47;4976903;28;20022;-89
2023/06/12 06:03:04;;;;;;;13.10;7.47;;;;;;;-148.88;82.88;-17125.47;4977219;28;20031;-88
2023/06/12 06:05:32;;;;;;;9.40;7.00;;;;;;;-148.88;82.92;-17125.47;4977434;28;20110;-88
2023/06/12 06:07:58;;;;;;;10.80;7.15;;;;;;;-148.88;83.22;-17125.47;4978901;28;20022;-89
2023/06/12 06:10:24;;;;;;;12.27;7.65;;;;;;;-148.88;82.62;-17125.47;4978495;28;20050;-90
2023/06/12 06:12:52;;;;;;;11.38;7.32;;;;;;;-148.88;82.98;-17125.47;4977691;28;20038;-88
2023/06/12 06:15:17;;;;;;;8.57;7.30;;;;;;;-148.88;82.50;-17125.47;4978103;28;20559;-88
2023/06/12 06:17:43;;;;;;;9.23;6.90;;;;;;;-148.88;82.82;-17125.47;4975601;28;20151;-87
2023/06/12 06:20:09;;;;;;;9.65;7.18;;;;;;;-148.88;82.89;-17125.47;4976897;28;20026;-90
2023/06/12 06:22:34;;;;;;;10.57;7.03;;;;;;;-148.88;81.89;-17125.47;4976793;28;20038;-89
2023/06/12 06:25:00;;;;;;;8.77;6.57;;;;;;;-148.88;82.03;-17125.47;4976706;28;20401;-90
2023/06/12 06:27:25;;;;;;;8.50;7.28;;;;;;;-148.88;82.09;-17125.47;4976577;28;20409;-91
2023/06/12 06:29:51;;;;;;;8.60;7.35;;;;;;;-148.88;83.68;-17125.47;4977461;28;20026;-89
2023/06/12 06:32:17;;;;;;;9.65;7.00;;;;;;;-148.88;83.80;-17125.47;4977780;28;20035;-91
2023/06/12 06:34:43;;;;;;;8.18;6.75;;;;;;;-148.88;84.09;-17125.47;4976075;28;20504;-87
2023/06/12 06:37:08;;;;;;;10.50;6.97;;;;;;;-148.88;85.19;-17125.47;4976533;28;20030;-84
2023/06/12 06:39:34;;;;;;;11.38;7.50;;;;;;;-148.88;83.87;-17125.47;4976162;28;20026;-84
2023/06/12 06:41:59;;;;;;;8.27;6.43;;;;;;;-148.88;83.92;-17125.47;4974869;28;20023;-84
2023/06/12 06:44:25;;;;;;;8.23;6.78;;;;;;;-148.88;82.25;-17125.47;4976218;28;20113;-84
2023/06/12 06:46:50;;;;;;;9.27;6.70;;;;;;;-148.88;82.12;-17125.47;4976304;28;20027;-85
2023/06/12 06:49:16;;;;;;;8.40;6.18;;;;;;;-148.88;82.63;-17125.47;4976018;28;20035;-84
2023/06/12 06:51:41;;;;;;;7.85;6.55;;;;;;;-148.88;81.74;-17125.47;4975459;28;20022;-83
2023/06/12 06:54:06;;;;;;;11.35;6.82;;;;;;;-148.88;80.07;-17125.47;4975954;28;20035;-84
2023/06/12 06:56:32;;;;;;;10.15;6.82;;;;;;;-148.88;79.98;-17125.47;4976464;28;20106;-85
2023/06/12 06:58:57;;;;;;;11.10;6.40;;;;;;;-148.88;78.52;-17125.47;4975952;28;20022;-85
2023/06/12 07:01:24;;;;;;;7.20;5.55;;;;;;;-148.88;78.40;-17125.47;4975492;28;20030;-87
2023/06/12 07:03:50;;;;;;;8.63;6.05;;;;;;;-148.88;76.94;-17125.47;4975987;28;20157;-91
2023/06/12 07:06:15;;;;;;;7.70;5.32;;;;;;;-148.88;76.89;-17125.47;4975629;28;20062;-89
2023/06/12 07:08:41;;;;;;;7.72;5.75;;;;;;;-148.88;75.50;-17125.47;4975460;28;20019;-89
2023/06/12 07:11:06;;;;;;;7.03;6.18;;;;;;;-148.88;75.25;-17125.47;4974584;28;20065;-91
2023/06/12 07:13:32;;;;;;;7.78;6.25;;;;;;;-148.88;71.23;-17125.47;4974304;28;20060;-90
2023/06/12 07:15:57;;;;;;;8.43;6.57;;;;;;;-148.88;71.08;-17125.47;4974301;28;20027;-89
2023/06/12 07:18:23;;;;;;;10.27;6.03;;;;;;;-148.88;70.63;-17125.47;4975965;28;20026;-90
2023/06/12 07:20:48;;;;;;;10.38;6.63;;;;;;;-148.88;68.88;-17125.47;4975683;28;20023;-90
2023/06/12 07:23:14;;;;;;;7.10;5.78;;;;;;;-148.88;69.98;-17125.47;4975520;28;20092;-89
2023/06/12 07:25:39;;;;;;;7.95;6.00;;;;;;;-148.88;70.73;-17125.47;4976078;28;20026;-90
2023/06/12 07:28:05;;;;;;;7.97;6.20;;;;;;;-148.88;69.45;-17125.47;4974415;28;20500;-89
2023/06/12 07:30:30;;;;;;;8.32;5.95;;;;;;;-148.88;68.21;-17125.47;4974421;28;20038;-89
2023/06/12 07:32:55;;;;;;;8.23;6.10;;;;;;;-148.88;64.48;-17125.47;4975711;28;20031;-89
2023/06/12 07:35:21;;;;;;;6.82;5.82;;;;;;;-148.88;66.41;-17125.47;4974265;28;20469;-91
2023/06/12 07:37:49;;;;;;;10.82;6.20;;;;;;;-148.88;68.49;-17125.47;4976148;28;20608;-90
2023/06/12 07:40:15;;;;;;;7.35;6.07;;;;;;;-148.88;69.35;-17125.47;4975348;28;20162;-89
2023/06/12 07:42:42;;;;;;;7.85;6.03;;;;;;;-148.88;67.05;-17125.47;4975355;28;20026;-91
2023/06/12 07:45:08;;;;;;;9.43;5.80;;;;;;;-148.88;67.74;-17125.47;4975351;28;20027;-90
2023/06/12 07:47:34;;;;;;;7.43;5.20;;;;;;;-148.88;65.68;-17125.47;4975241;28;20031;-91
2023/06/12 07:49:59;;;;;;;7.65;5.85;;;;;;;-148.88;64.77;-17125.47;4974740;28;20026;-89
2023/06/12 07:52:24;;;;;;;9.73;5.80;;;;;;;-148.88;63.02;-17125.47;4975074;28;20046;-90
2023/06/12 07:54:50;;;;;;;8.35;5.20;;;;;;;-148.88;66.59;-17125.47;4975152;28;20500;-90
2023/06/12 07:57:16;;;;;;;6.25;5.07;;;;;;;-148.88;66.10;-17125.47;4974500;28;20073;-90
2023/06/12 07:59:44;;;;;;;8.32;5.88;;;;;;;-148.88;67.80;-17125.47;4975358;28;20054;-89
2023/06/12 08:02:10;;;;;;;7.40;6.00;;;;;;;-148.88;60.28;-17125.47;4975392;28;20081;-90
2023/06/12 08:04:39;;;;;;;9.68;5.72;;;;;;;-148.88;56.89;-17125.47;4981518;28;20027;-90
2023/06/12 08:07:05;;;;;;;9.93;5.82;;;;;;;-148.88;57.91;-17125.47;4976162;28;20089;-90
2023/06/12 08:09:30;;;;;;;7.35;5.85;;;;;;;-148.88;57.27;-17125.47;4974783;28;20026;-90
2023/06/12 08:11:56;;;;;;;10.50;6.00;;;;;;;-148.88;56.40;-17125.47;4974212;28;20033;-90
2023/06/12 08:14:21;;;;;;;8.90;6.35;;;;;;;-148.88;56.12;-17125.47;4975169;28;20022;-90
2023/06/12 08:16:46;;;;;;;6.93;6.10;;;;;;;-148.88;50.64;-17125.47;4975621;28;20026;-90
2023/06/12 08:19:12;;;;;;;9.20;5.90;;;;;;;-148.88;49.88;-17125.47;4977108;28;20077;-90
2023/06/12 08:21:39;;;;;;;8.82;6.72;;;;;;;-148.88;49.93;-17125.47;4975320;28;20393;-89
2023/06/12 08:24:07;;;;;;;9.82;6.68;;;;;;;-148.88;51.39;-17125.47;4975101;28;20026;-89
2023/06/12 08:26:33;;;;;;;6.90;6.20;;;;;;;-148.88;48.38;-17125.47;4975478;28;20019;-91
2023/06/12 08:28:58;;;;;;;7.70;5.72;;;;;;;-148.88;49.70;-17125.47;4978675;28;20084;-91
2023/06/12 08:31:24;;;;;;;6.93;5.95;;;;;;;-148.88;45.19;-17125.47;4978241;28;20097;-92
2023/06/12 08:33:49;;;;;;;8.82;6.20;;;;;;;-148.88;47.36;-17125.47;4975289;28;20039;-89
2023/06/12 08:36:15;;;;;;;10.98;6.07;;;;;;;-148.88;46.92;-17125.47;4975716;28;20034;-89
2023/06/12 08:38:40;;;;;;;7.35;5.80;;;;;;;-148.88;44.89;-17125.47;4978220;28;20030;-91
2023/06/12 08:41:06;;;;;;;9.85;5.95;;;;;;;-148.88;48.84;-17125.47;4978467;28;20541;-89
2023/06/12 08:43:33;;;;;;;8.07;6.40;;;;;;;-148.88;47.50;-17125.47;4975184;28;20150;-90
2023/06/12 08:46:02;;;;;;;7.72;5.85;;;;;;;-148.88;44.05;-17125.47;4975197;28;20151;-92
2023/06/12 08:48:28;;;;;;;7.47;5.63;;;;;;;-148.88;44.77;-17125.47;4974663;28;20058;-89
2023/06/12 08:50:54;;;;;;;7.75;5.65;;;;;;;-148.88;46.97;-17125.47;4980132;28;20077;-88
2023/06/12 08:53:20;;;;;;;8.00;5.40;;;;;;;-148.88;44.52;-17125.47;4975585;28;20035;-86
2023/06/12 08:55:46;;;;;;;7.85;5.70;;;;;;;-148.88;45.21;-17125.47;4974537;28;20029;-87
2023/06/12 08:58:12;;;;;;;8.65;5.50;;;;;;;-148.88;43.32;-17125.47;4973118;28;20061;-89
2023/06/12 09:00:38;;;;;;;7.75;5.80;;;;;;;-148.88;43.75;-17125.47;4974171;28;20027;-89
2023/06/12 09:03:06;;;;;;;6.60;5.90;;;;;;;-148.88;44.09;-17125.47;4974516;28;20547;-89
2023/06/12 09:05:38;;;;;;;6.10;5.45;;;;;;;-148.88;43.66;-17125.47;4976006;28;20077;-90
2023/06/12 09:08:05;;;;;;;8.90;5.60;;;;;;;-148.88;41.05;-17125.47;4974593;28;20027;-88
2023/06/12 09:10:31;;;;;;;8.30;5.82;;;;;;;-148.88;41.58;-17125.47;4974435;28;20277;-88
2023/06/12 09:12:57;;;;;;;8.02;5.55;;;;;;;-148.88;39.92;-17125.47;4974280;28;20022;-88
2023/06/12 09:15:24;;;;;;;9.38;5.32;;;;;;;-148.88;39.26;-17125.47;4974480;28;20030;-88
2023/06/12 09:17:54;;;;;;;6.20;5.60;;;;;;;-148.88;37.88;-17125.47;4974352;28;20023;-88
2023/06/12 09:20:28;;;;;;;6.97;5.45;;;;;;;-148.88;37.65;-17125.47;4974480;28;20031;-87
2023/06/12 09:22:55;;;;;;;6.78;5.30;;;;;;;-148.88;37.44;-17125.47;4974577;28;20030;-89
2023/06/12 09:25:25;;;;;;;7.55;5.75;;;;;;;-148.88;38.65;-17125.47;4977549;28;20034;-89
2023/06/12 09:27:51;;;;;;;7.20;5.32;;;;;;;-148.88;37.68;-17125.47;4977984;28;20109;-90
2023/06/12 09:30:16;;;;;;;7.35;5.45;;;;;;;-148.88;36.79;-17125.47;4985861;28;20089;-89
2023/06/12 09:32:45;;;;;;;6.93;5.65;;;;;;;-148.88;38.48;-17125.47;4990307;28;20034;-90
2023/06/12 09:35:18;;;;;;;8.07;5.68;;;;;;;-148.88;36.76;-17125.47;4979858;28;20031;-89
2023/06/12 09:37:45;;;;;;;6.72;5.30;;;;;;;-148.88;37.56;-17125.47;4979382;28;20042;-90
2023/06/12 09:40:23;;;;;;;5.95;5.30;;;;;;;-148.88;37.11;-17125.47;4981080;28;20098;-92
2023/06/12 09:42:49;;;;;;;7.70;5.35;;;;;;;-148.88;35.27;-17125.47;4979505;28;20473;-93
2023/06/12 09:45:23;;;;;;;8.20;5.18;;;;;;;-148.88;34.04;-17125.47;4979588;28;20034;-90
2023/06/12 09:47:50;;;;;;;6.38;5.50;;;;;;;-148.88;34.83;-17125.47;4978990;28;20077;-90
2023/06/12 09:50:17;;;;;;;7.75;5.15;;;;;;;-148.88;36.94;-17125.47;4978355;28;20493;-91
2023/06/12 09:52:43;;;;;;;9.13;5.63;;;;;;;-148.88;34.18;-17125.47;4978574;28;20478;-87
2023/06/12 09:55:48;;;;;;;7.15;5.57;;;;;;;-148.88;34.44;-17125.47;4977458;28;20053;-92
2023/06/12 09:58:23;;;;;;;9.88;5.85;;;;;;;-148.88;36.05;-17125.47;4955276;28;20045;-93
2023/06/12 10:00:50;;;;;;;7.13;5.63;;;;;;;-148.88;36.34;-17125.47;4984340;28;20018;-91
2023/06/12 10:03:19;;;;;;;12.50;6.05;;;;;;;-148.88;38.43;-17125.47;4983753;28;20147;-91
2023/06/12 10:05:51;;;;;;;9.32;5.82;;;;;;;-148.88;37.04;-17125.47;4986360;28;20042;-91
2023/06/12 10:08:18;;;;;;;6.93;6.10;;;;;;;-148.88;39.00;-17125.47;4978307;28;20027;-91
2023/06/12 10:10:44;;;;;;;8.05;5.95;;;;;;;-148.88;38.06;-17125.47;4977611;28;20042;-91
2023/06/12 10:13:11;;;;;;;8.98;6.65;;;;;;;-148.88;37.67;-17125.47;4975819;28;20023;-92
2023/06/12 10:15:37;;;;;;;7.50;6.25;;;;;;;-148.88;37.39;-17125.47;4977024;28;20027;-90
2023/06/12 10:18:04;;;;;;;8.45;6.10;;;;;;;-148.88;37.26;-17125.47;4976507;28;20027;-90
2023/06/12 10:20:30;;;;;;;7.38;6.07;;;;;;;-148.88;37.21;-17125.47;4977410;28;20029;-89
2023/06/12 10:22:57;;;;;;;9.55;6.55;;;;;;;-148.88;36.96;-17125.47;4975289;28;20077;-90
2023/06/12 10:25:23;;;;;;;7.78;6.32;;;;;;;-148.88;38.75;-17125.47;4976836;28;20027;-89
2023/06/12 10:27:49;;;;;;;7.18;6.47;;;;;;;-148.88;39.30;-17125.47;4976442;28;20023;-90
2023/06/12 10:30:17;;;;;;;9.63;6.20;;;;;;;-148.88;39.54;-17125.47;4977053;28;20030;-92
2023/06/12 10:32:45;;;;;;;6.93;5.97;;;;;;;-148.88;37.80;-17125.47;4979553;28;20037;-90
2023/06/12 10:35:11;;;;;;;9.32;6.55;;;;;;;-148.88;35.42;-17125.47;4976161;28;20030;-90
2023/06/12 10:37:46;;;;;;;8.02;6.07;;;;;;;-148.88;33.88;-17125.47;4977038;28;20038;-92
2023/06/12 10:40:21;;;;;;;6.88;5.65;;;;;;;-148.88;33.00;-17125.47;4977276;28;20050;-91
2023/06/12 10:42:47;;;;;;;7.07;5.90;;;;;;;-148.88;34.47;-17125.47;4984145;28;20039;-92
2023/06/12 10:45:22;;;;;;;9.05;5.82;;;;;;;-148.88;35.05;-17125.47;4977002;28;20022;-92
2023/06/12 10:48:03;;;;;;;7.45;5.68;;;;;;;-148.88;33.80;-17125.47;4977626;28;20031;-92
2023/06/12 10:50:36;;;;;;;6.93;5.70;;;;;;;-148.88;33.38;-17125.47;4975865;28;20102;-88
2023/06/12 10:53:07;;;;;;;8.07;6.20;;;;;;;-148.88;32.79;-17125.47;4978591;28;20057;-89
2023/06/12 10:55:36;;;;;;;7.78;5.68;;;;;;;-148.88;33.29;-17125.47;4979620;28;20077;-90
2023/06/12 10:58:03;;;;;;;6.38;5.70;;;;;;;-148.88;33.49;-17125.47;4977535;28;20027;-89
2023/06/12 11:00:35;;;;;;;7.70;5.47;;;;;;;-148.88;32.91;-17125.47;4977422;28;20026;-87
2023/06/12 11:03:12;;;;;;;8.25;6.10;;;;;;;-148.88;33.39;-17125.47;4975525;28;20022;-88
2023/06/12 11:05:44;;;;;;;9.50;6.30;;;;;;;-148.88;31.74;-17125.47;4975721;28;20101;-88
2023/06/12 11:08:10;;;;;;;6.72;5.47;;;;;;;-148.88;31.70;-17125.47;4975533;28;20548;-88